sensor_id;sensor_type;location;lat;lon;timestamp;pressure;altitude;pressure_sealevel;temperature;humidity
39491;BME280;25175;50.140;18.990;2022-08-06T00:01:29;98254.97;;;22.64;57.84
39491;BME280;25175;50.140;18.990;2022-08-06T00:04:31;98261.63;;;22.66;57.78
39491;BME280;25175;50.140;18.990;2022-08-06T00:07:33;98258.97;;;22.66;57.95
39491;BME280;25175;50.140;18.990;2022-08-06T00:10:35;98269.19;;;22.59;58.01
39491;BME280;25175;50.140;18.990;2022-08-06T00:13:39;98266.59;;;22.49;58.29
39491;BME280;25175;50.140;18.990;2022-08-06T00:16:42;98265.34;;;22.42;58.49
39491;BME280;25175;50.140;18.990;2022-08-06T00:19:44;98264.53;;;22.41;58.70
39491;BME280;25175;50.140;18.990;2022-08-06T00:22:47;98266.72;;;22.39;58.71
39491;BME280;25175;50.140;18.990;2022-08-06T00:25:49;98272.09;;;22.34;58.81
39491;BME280;25175;50.140;18.990;2022-08-06T00:28:52;98264.94;;;22.30;58.52
39491;BME280;25175;50.140;18.990;2022-08-06T00:31:54;98265.53;;;22.22;59.00
39491;BME280;25175;50.140;18.990;2022-08-06T00:34:56;98265.34;;;22.13;59.28
39491;BME280;25175;50.140;18.990;2022-08-06T00:37:59;98270.84;;;21.98;59.68
39491;BME280;25175;50.140;18.990;2022-08-06T00:41:01;98271.19;;;21.82;59.82
39491;BME280;25175;50.140;18.990;2022-08-06T00:44:05;98270.72;;;21.75;60.71
39491;BME280;25175;50.140;18.990;2022-08-06T00:47:07;98276.31;;;21.78;60.53
39491;BME280;25175;50.140;18.990;2022-08-06T00:50:09;98275.25;;;21.74;60.46
39491;BME280;25175;50.140;18.990;2022-08-06T00:53:12;98271.84;;;21.69;60.74
39491;BME280;25175;50.140;18.990;2022-08-06T00:56:14;98262.75;;;21.70;61.01
39491;BME280;25175;50.140;18.990;2022-08-06T00:59:20;98267.81;;;21.71;60.68
39491;BME280;25175;50.140;18.990;2022-08-06T01:02:22;98280.16;;;21.62;60.83
39491;BME280;25175;50.140;18.990;2022-08-06T01:05:24;98284.59;;;21.38;61.61
39491;BME280;25175;50.140;18.990;2022-08-06T01:08:26;98277.41;;;21.34;62.02
39491;BME280;25175;50.140;18.990;2022-08-06T01:11:28;98291.34;;;21.21;62.47
39491;BME280;25175;50.140;18.990;2022-08-06T01:14:32;98286.31;;;21.09;62.59
39491;BME280;25175;50.140;18.990;2022-08-06T01:17:37;98295.34;;;21.08;62.39
39491;BME280;25175;50.140;18.990;2022-08-06T01:20:52;98291.91;;;21.08;61.62
39491;BME280;25175;50.140;18.990;2022-08-06T01:24:21;98276.19;;;21.06;61.22
39491;BME280;25175;50.140;18.990;2022-08-06T01:27:42;98296.16;;;21.14;61.14
39491;BME280;25175;50.140;18.990;2022-08-06T01:30:49;98290.81;;;21.14;60.84
39491;BME280;25175;50.140;18.990;2022-08-06T01:33:56;98284.44;;;21.10;60.87
39491;BME280;25175;50.140;18.990;2022-08-06T01:37:04;98296.44;;;21.07;60.92
39491;BME280;25175;50.140;18.990;2022-08-06T01:40:14;98299.34;;;21.06;61.08
39491;BME280;25175;50.140;18.990;2022-08-06T01:43:20;98302.84;;;21.01;60.98
39491;BME280;25175;50.140;18.990;2022-08-06T01:46:24;98298.09;;;20.98;61.03
39491;BME280;25175;50.140;18.990;2022-08-06T01:49:29;98306.34;;;20.97;60.96
39491;BME280;25175;50.140;18.990;2022-08-06T01:52:34;98303.13;;;20.95;61.12
39491;BME280;25175;50.140;18.990;2022-08-06T01:55:40;98304.22;;;20.89;61.25
39491;BME280;25175;50.140;18.990;2022-08-06T01:58:45;98306.63;;;20.85;61.23
39491;BME280;25175;50.140;18.990;2022-08-06T02:01:52;98302.66;;;20.78;61.51
39491;BME280;25175;50.140;18.990;2022-08-06T02:04:58;98312.25;;;20.79;61.51
39491;BME280;25175;50.140;18.990;2022-08-06T02:08:03;98311.72;;;20.77;61.47
39491;BME280;25175;50.140;18.990;2022-08-06T02:11:09;98317.88;;;20.77;61.56
39491;BME280;25175;50.140;18.990;2022-08-06T02:14:14;98322.13;;;20.73;61.75
39491;BME280;25175;50.140;18.990;2022-08-06T02:17:18;98314.97;;;20.69;61.58
39491;BME280;25175;50.140;18.990;2022-08-06T02:20:26;98319.75;;;20.67;61.55
39491;BME280;25175;50.140;18.990;2022-08-06T02:23:29;98329.34;;;20.63;61.50
39491;BME280;25175;50.140;18.990;2022-08-06T02:26:33;98336.53;;;20.62;61.58
39491;BME280;25175;50.140;18.990;2022-08-06T02:29:40;98344.50;;;20.62;61.57
39491;BME280;25175;50.140;18.990;2022-08-06T02:32:43;98348.25;;;20.61;61.52
39491;BME280;25175;50.140;18.990;2022-08-06T02:35:48;98345.59;;;20.61;61.62
39491;BME280;25175;50.140;18.990;2022-08-06T02:38:53;98347.19;;;20.62;61.49
39491;BME280;25175;50.140;18.990;2022-08-06T02:42:02;98350.34;;;20.64;61.30
39491;BME280;25175;50.140;18.990;2022-08-06T02:45:09;98362.34;;;20.62;61.24
39491;BME280;25175;50.140;18.990;2022-08-06T02:48:19;98366.34;;;20.59;61.29
39491;BME280;25175;50.140;18.990;2022-08-06T02:51:27;98370.63;;;20.55;61.13
39491;BME280;25175;50.140;18.990;2022-08-06T02:54:36;98373.28;;;20.55;61.26
39491;BME280;25175;50.140;18.990;2022-08-06T02:57:47;98387.38;;;20.56;61.21
39491;BME280;25175;50.140;18.990;2022-08-06T03:00:52;98391.38;;;20.53;61.33
39491;BME280;25175;50.140;18.990;2022-08-06T03:03:57;98394.03;;;20.48;60.98
39491;BME280;25175;50.140;18.990;2022-08-06T03:07:03;98394.81;;;20.44;61.17
39491;BME280;25175;50.140;18.990;2022-08-06T03:10:08;98402.78;;;20.44;61.21
39491;BME280;25175;50.140;18.990;2022-08-06T03:13:11;98406.28;;;20.44;61.28
39491;BME280;25175;50.140;18.990;2022-08-06T03:16:16;98415.59;;;20.42;61.12
39491;BME280;25175;50.140;18.990;2022-08-06T03:19:20;98417.97;;;20.43;61.05
39491;BME280;25175;50.140;18.990;2022-08-06T03:22:23;98423.31;;;20.48;61.01
39491;BME280;25175;50.140;18.990;2022-08-06T03:25:27;98427.59;;;20.49;60.95
39491;BME280;25175;50.140;18.990;2022-08-06T03:28:32;98429.97;;;20.51;60.85
39491;BME280;25175;50.140;18.990;2022-08-06T03:31:36;98436.34;;;20.50;60.80
39491;BME280;25175;50.140;18.990;2022-08-06T03:34:40;98434.75;;;20.49;61.06
39491;BME280;25175;50.140;18.990;2022-08-06T03:37:45;98441.16;;;20.53;60.95
39491;BME280;25175;50.140;18.990;2022-08-06T03:40:49;98441.69;;;20.55;60.92
39491;BME280;25175;50.140;18.990;2022-08-06T03:43:52;98451.56;;;20.54;60.80
39491;BME280;25175;50.140;18.990;2022-08-06T03:47:00;98455.81;;;20.55;60.77
39491;BME280;25175;50.140;18.990;2022-08-06T03:50:09;98466.16;;;20.57;60.75
39491;BME280;25175;50.140;18.990;2022-08-06T03:53:15;98473.38;;;20.56;60.80
39491;BME280;25175;50.140;18.990;2022-08-06T03:56:20;98494.41;;;20.58;60.89
39491;BME280;25175;50.140;18.990;2022-08-06T03:59:26;98498.94;;;20.62;60.91
39491;BME280;25175;50.140;18.990;2022-08-06T04:02:34;98503.19;;;20.58;61.06
39491;BME280;25175;50.140;18.990;2022-08-06T04:05:37;98514.38;;;20.55;61.15
39491;BME280;25175;50.140;18.990;2022-08-06T04:08:40;98518.09;;;20.59;61.27
39491;BME280;25175;50.140;18.990;2022-08-06T04:11:43;98523.41;;;20.59;61.30
39491;BME280;25175;50.140;18.990;2022-08-06T04:14:46;98522.06;;;20.62;61.47
39491;BME280;25175;50.140;18.990;2022-08-06T04:17:51;98536.22;;;20.67;61.37
39491;BME280;25175;50.140;18.990;2022-08-06T04:20:57;98532.47;;;20.68;61.58
39491;BME280;25175;50.140;18.990;2022-08-06T04:24:00;98535.94;;;20.69;61.60
39491;BME280;25175;50.140;18.990;2022-08-06T04:27:04;98553.78;;;20.73;61.76
39491;BME280;25175;50.140;18.990;2022-08-06T04:30:08;98545.00;;;20.78;61.92
39491;BME280;25175;50.140;18.990;2022-08-06T04:33:13;98560.97;;;20.83;61.77
39491;BME280;25175;50.140;18.990;2022-08-06T04:36:17;98566.06;;;20.89;61.81
39491;BME280;25175;50.140;18.990;2022-08-06T04:39:20;98566.56;;;20.96;61.90
39491;BME280;25175;50.140;18.990;2022-08-06T04:42:23;98575.13;;;20.98;61.91
39491;BME280;25175;50.140;18.990;2022-08-06T04:45:26;98572.97;;;21.00;61.89
39491;BME280;25175;50.140;18.990;2022-08-06T04:48:30;98590.28;;;21.03;61.89
39491;BME280;25175;50.140;18.990;2022-08-06T04:51:33;98592.72;;;21.04;62.08
39491;BME280;25175;50.140;18.990;2022-08-06T04:54:36;98589.75;;;21.01;62.12
39491;BME280;25175;50.140;18.990;2022-08-06T04:57:38;98607.88;;;20.99;62.42
39491;BME280;25175;50.140;18.990;2022-08-06T05:00:42;98623.84;;;20.99;62.60
39491;BME280;25175;50.140;18.990;2022-08-06T05:03:45;98627.84;;;21.01;62.73
39491;BME280;25175;50.140;18.990;2022-08-06T05:07:01;98635.31;;;20.99;63.05
39491;BME280;25175;50.140;18.990;2022-08-06T05:10:07;98644.91;;;21.05;63.08
39491;BME280;25175;50.140;18.990;2022-08-06T05:13:12;98650.25;;;21.05;63.23
39491;BME280;25175;50.140;18.990;2022-08-06T05:16:16;98658.75;;;21.07;63.32
39491;BME280;25175;50.140;18.990;2022-08-06T05:19:34;98670.50;;;21.06;63.59
39491;BME280;25175;50.140;18.990;2022-08-06T05:22:39;98681.16;;;21.06;63.67
39491;BME280;25175;50.140;18.990;2022-08-06T05:25:43;98686.50;;;21.11;63.81
39491;BME280;25175;50.140;18.990;2022-08-06T05:28:45;98701.97;;;21.19;63.70
39491;BME280;25175;50.140;18.990;2022-08-06T05:31:47;98716.91;;;21.25;63.53
39491;BME280;25175;50.140;18.990;2022-08-06T05:34:51;98717.72;;;21.26;63.76
39491;BME280;25175;50.140;18.990;2022-08-06T05:37:53;98716.38;;;21.18;63.93
39491;BME280;25175;50.140;18.990;2022-08-06T05:40:55;98733.91;;;21.14;64.30
39491;BME280;25175;50.140;18.990;2022-08-06T05:43:58;98743.78;;;21.14;64.40
39491;BME280;25175;50.140;18.990;2022-08-06T05:47:04;98754.19;;;21.15;64.63
39491;BME280;25175;50.140;18.990;2022-08-06T05:50:09;98747.53;;;21.13;64.83
39491;BME280;25175;50.140;18.990;2022-08-06T05:53:16;98749.09;;;21.09;64.93
39491;BME280;25175;50.140;18.990;2022-08-06T05:56:24;98761.88;;;21.12;65.02
39491;BME280;25175;50.140;18.990;2022-08-06T05:59:30;98757.91;;;21.09;65.28
39491;BME280;25175;50.140;18.990;2022-08-06T06:02:34;98765.09;;;21.14;65.13
39491;BME280;25175;50.140;18.990;2022-08-06T06:05:39;98754.44;;;21.14;65.38
39491;BME280;25175;50.140;18.990;2022-08-06T06:08:41;98757.88;;;21.14;65.40
39491;BME280;25175;50.140;18.990;2022-08-06T06:11:44;98761.66;;;21.18;65.46
39491;BME280;25175;50.140;18.990;2022-08-06T06:14:47;98754.75;;;21.17;65.22
39491;BME280;25175;50.140;18.990;2022-08-06T06:18:10;98757.63;;;21.16;65.34
39491;BME280;25175;50.140;18.990;2022-08-06T06:21:21;98770.19;;;21.15;65.38
39491;BME280;25175;50.140;18.990;2022-08-06T06:24:30;98770.44;;;21.14;65.41
39491;BME280;25175;50.140;18.990;2022-08-06T06:27:53;98779.22;;;21.09;65.56
39491;BME280;25175;50.140;18.990;2022-08-06T06:31:01;98778.13;;;21.05;65.80
39491;BME280;25175;50.140;18.990;2022-08-06T06:34:05;98783.47;;;21.05;65.95
39491;BME280;25175;50.140;18.990;2022-08-06T06:37:17;98794.41;;;21.09;66.07
39491;BME280;25175;50.140;18.990;2022-08-06T06:40:35;98798.69;;;21.15;65.76
39491;BME280;25175;50.140;18.990;2022-08-06T06:43:45;98805.91;;;21.19;65.76
39491;BME280;25175;50.140;18.990;2022-08-06T06:46:54;98815.53;;;21.25;65.88
39491;BME280;25175;50.140;18.990;2022-08-06T06:50:02;98817.16;;;21.26;65.50
39491;BME280;25175;50.140;18.990;2022-08-06T06:53:11;98820.34;;;21.28;65.66
39491;BME280;25175;50.140;18.990;2022-08-06T06:56:19;98821.13;;;21.34;65.72
39491;BME280;25175;50.140;18.990;2022-08-06T06:59:27;98821.16;;;21.39;65.96
39491;BME280;25175;50.140;18.990;2022-08-06T07:02:34;98832.63;;;21.39;65.56
39491;BME280;25175;50.140;18.990;2022-08-06T07:05:39;98827.56;;;21.38;65.71
39491;BME280;25175;50.140;18.990;2022-08-06T07:08:47;98831.03;;;21.38;66.01
39491;BME280;25175;50.140;18.990;2022-08-06T07:11:53;98838.78;;;21.40;65.83
39491;BME280;25175;50.140;18.990;2022-08-06T07:14:58;98846.50;;;21.41;65.71
39491;BME280;25175;50.140;18.990;2022-08-06T07:18:01;98849.44;;;21.45;65.66
39491;BME280;25175;50.140;18.990;2022-08-06T07:21:05;98846.25;;;21.48;65.54
39491;BME280;25175;50.140;18.990;2022-08-06T07:24:11;98843.31;;;21.49;65.62
39491;BME280;25175;50.140;18.990;2022-08-06T07:27:14;98852.41;;;21.48;65.53
39491;BME280;25175;50.140;18.990;2022-08-06T07:30:36;98864.09;;;21.47;65.59
39491;BME280;25175;50.140;18.990;2022-08-06T07:33:56;98870.22;;;21.43;65.80
39491;BME280;25175;50.140;18.990;2022-08-06T07:37:00;98880.38;;;21.41;66.20
39491;BME280;25175;50.140;18.990;2022-08-06T07:40:07;98879.78;;;21.34;66.64
39491;BME280;25175;50.140;18.990;2022-08-06T07:43:13;98883.47;;;21.18;66.49
39491;BME280;25175;50.140;18.990;2022-08-06T07:46:18;98897.16;;;20.95;66.59
39491;BME280;25175;50.140;18.990;2022-08-06T07:49:23;98898.88;;;20.69;66.61
39491;BME280;25175;50.140;18.990;2022-08-06T07:52:26;98900.28;;;20.45;66.91
39491;BME280;25175;50.140;18.990;2022-08-06T07:55:30;98912.34;;;20.26;67.24
39491;BME280;25175;50.140;18.990;2022-08-06T07:58:33;98919.94;;;20.13;67.55
39491;BME280;25175;50.140;18.990;2022-08-06T08:01:37;98924.91;;;20.04;67.84
39491;BME280;25175;50.140;18.990;2022-08-06T08:04:40;98935.47;;;19.94;68.40
39491;BME280;25175;50.140;18.990;2022-08-06T08:07:59;98930.78;;;19.80;68.75
39491;BME280;25175;50.140;18.990;2022-08-06T08:11:05;98929.84;;;19.69;69.37
39491;BME280;25175;50.140;18.990;2022-08-06T08:14:10;98939.00;;;19.57;70.33
39491;BME280;25175;50.140;18.990;2022-08-06T08:17:14;98948.59;;;19.36;71.13
39491;BME280;25175;50.140;18.990;2022-08-06T08:20:16;98960.06;;;19.20;71.60
39491;BME280;25175;50.140;18.990;2022-08-06T08:23:19;98958.47;;;19.03;72.09
39491;BME280;25175;50.140;18.990;2022-08-06T08:26:23;98954.63;;;18.94;73.00
39491;BME280;25175;50.140;18.990;2022-08-06T08:29:26;98947.63;;;18.88;73.30
39491;BME280;25175;50.140;18.990;2022-08-06T08:32:28;98948.53;;;18.77;73.77
39491;BME280;25175;50.140;18.990;2022-08-06T08:35:31;98940.63;;;18.65;74.41
39491;BME280;25175;50.140;18.990;2022-08-06T08:38:34;98948.13;;;18.52;74.98
39491;BME280;25175;50.140;18.990;2022-08-06T08:41:40;98963.63;;;18.43;75.36
39491;BME280;25175;50.140;18.990;2022-08-06T08:44:43;98962.75;;;18.38;75.95
39491;BME280;25175;50.140;18.990;2022-08-06T08:47:50;98971.28;;;18.40;75.88
39491;BME280;25175;50.140;18.990;2022-08-06T08:50:54;98979.78;;;18.42;76.39
39491;BME280;25175;50.140;18.990;2022-08-06T08:53:59;98988.56;;;18.42;76.17
39491;BME280;25175;50.140;18.990;2022-08-06T08:57:03;98988.66;;;18.47;76.18
39491;BME280;25175;50.140;18.990;2022-08-06T09:00:07;98992.91;;;18.48;76.23
39491;BME280;25175;50.140;18.990;2022-08-06T09:03:09;99003.28;;;18.50;76.42
39491;BME280;25175;50.140;18.990;2022-08-06T09:06:12;98996.06;;;18.45;76.54
39491;BME280;25175;50.140;18.990;2022-08-06T09:09:15;98998.72;;;18.45;76.34
39491;BME280;25175;50.140;18.990;2022-08-06T09:12:18;99000.78;;;18.43;77.01
39491;BME280;25175;50.140;18.990;2022-08-06T09:15:21;98996.75;;;18.41;76.90
39491;BME280;25175;50.140;18.990;2022-08-06T09:18:25;98999.41;;;18.41;77.21
39491;BME280;25175;50.140;18.990;2022-08-06T09:21:27;98993.88;;;18.42;77.49
39491;BME280;25175;50.140;18.990;2022-08-06T09:24:29;98993.88;;;18.42;77.67
39491;BME280;25175;50.140;18.990;2022-08-06T09:27:34;99008.97;;;18.42;77.84
39491;BME280;25175;50.140;18.990;2022-08-06T09:30:38;99010.34;;;18.44;77.93
39491;BME280;25175;50.140;18.990;2022-08-06T09:33:42;99007.22;;;18.47;77.68
39491;BME280;25175;50.140;18.990;2022-08-06T09:36:53;99021.13;;;18.54;78.06
39491;BME280;25175;50.140;18.990;2022-08-06T09:39:56;99031.28;;;18.57;77.61
39491;BME280;25175;50.140;18.990;2022-08-06T09:43:00;99029.09;;;18.54;77.13
39491;BME280;25175;50.140;18.990;2022-08-06T09:46:03;99028.22;;;18.49;77.13
39491;BME280;25175;50.140;18.990;2022-08-06T09:49:06;99031.56;;;18.44;77.23
39491;BME280;25175;50.140;18.990;2022-08-06T09:52:14;99039.94;;;18.36;76.96
39491;BME280;25175;50.140;18.990;2022-08-06T09:55:28;99043.78;;;18.29;77.74
39491;BME280;25175;50.140;18.990;2022-08-06T09:58:34;99053.19;;;18.25;77.75
39491;BME280;25175;50.140;18.990;2022-08-06T10:01:41;99050.00;;;18.23;78.05
39491;BME280;25175;50.140;18.990;2022-08-06T10:04:44;99050.38;;;18.15;78.11
39491;BME280;25175;50.140;18.990;2022-08-06T10:07:47;99062.81;;;18.14;78.00
39491;BME280;25175;50.140;18.990;2022-08-06T10:11:02;99057.88;;;18.06;77.78
39491;BME280;25175;50.140;18.990;2022-08-06T10:14:20;99064.72;;;18.02;77.77
39491;BME280;25175;50.140;18.990;2022-08-06T10:17:27;99066.31;;;18.03;78.14
39491;BME280;25175;50.140;18.990;2022-08-06T10:20:30;99077.25;;;18.07;78.04
39491;BME280;25175;50.140;18.990;2022-08-06T10:23:34;99079.81;;;18.02;77.13
39491;BME280;25175;50.140;18.990;2022-08-06T10:26:37;99080.97;;;17.94;77.15
39491;BME280;25175;50.140;18.990;2022-08-06T10:29:44;99092.75;;;17.87;77.25
39491;BME280;25175;50.140;18.990;2022-08-06T10:32:52;99093.78;;;17.86;77.59
39491;BME280;25175;50.140;18.990;2022-08-06T10:35:59;99104.28;;;17.81;77.43
39491;BME280;25175;50.140;18.990;2022-08-06T10:39:03;99099.34;;;17.73;77.71
39491;BME280;25175;50.140;18.990;2022-08-06T10:42:07;99102.78;;;17.73;78.08
39491;BME280;25175;50.140;18.990;2022-08-06T10:45:13;99118.47;;;17.75;77.95
39491;BME280;25175;50.140;18.990;2022-08-06T10:48:15;99117.56;;;17.69;77.81
39491;BME280;25175;50.140;18.990;2022-08-06T10:51:18;99110.06;;;17.66;78.07
39491;BME280;25175;50.140;18.990;2022-08-06T10:54:20;99111.66;;;17.67;78.24
39491;BME280;25175;50.140;18.990;2022-08-06T10:57:22;99115.03;;;17.63;78.01
39491;BME280;25175;50.140;18.990;2022-08-06T11:00:26;99124.00;;;17.62;78.36
39491;BME280;25175;50.140;18.990;2022-08-06T11:03:51;99118.59;;;17.57;78.50
39491;BME280;25175;50.140;18.990;2022-08-06T11:07:17;99134.28;;;17.58;78.39
39491;BME280;25175;50.140;18.990;2022-08-06T11:10:40;99124.72;;;17.58;78.58
39491;BME280;25175;50.140;18.990;2022-08-06T11:13:52;99138.75;;;17.58;78.00
39491;BME280;25175;50.140;18.990;2022-08-06T11:16:59;99138.63;;;17.53;77.73
39491;BME280;25175;50.140;18.990;2022-08-06T11:20:02;99144.25;;;17.45;77.96
39491;BME280;25175;50.140;18.990;2022-08-06T11:23:20;99134.47;;;17.34;77.49
39491;BME280;25175;50.140;18.990;2022-08-06T11:26:41;99140.19;;;17.19;77.91
39491;BME280;25175;50.140;18.990;2022-08-06T11:30:07;99143.75;;;17.13;78.31
39491;BME280;25175;50.140;18.990;2022-08-06T11:33:12;99138.91;;;17.10;78.44
39491;BME280;25175;50.140;18.990;2022-08-06T11:36:24;99144.19;;;17.10;78.66
39491;BME280;25175;50.140;18.990;2022-08-06T11:39:27;99148.25;;;17.13;78.42
39491;BME280;25175;50.140;18.990;2022-08-06T11:42:42;99138.34;;;17.08;78.34
39491;BME280;25175;50.140;18.990;2022-08-06T11:49:24;99148.31;;;16.95;78.76
39491;BME280;25175;50.140;18.990;2022-08-06T11:52:54;99133.69;;;16.93;78.88
39491;BME280;25175;50.140;18.990;2022-08-06T11:56:08;99150.63;;;16.92;79.16
39491;BME280;25175;50.140;18.990;2022-08-06T11:59:13;99144.16;;;16.88;79.36
39491;BME280;25175;50.140;18.990;2022-08-06T12:05:43;99149.09;;;16.84;80.02
39491;BME280;25175;50.140;18.990;2022-08-06T12:09:07;99143.78;;;16.84;80.43
39491;BME280;25175;50.140;18.990;2022-08-06T12:12:31;99142.88;;;16.90;80.46
39491;BME280;25175;50.140;18.990;2022-08-06T12:15:37;99141.03;;;16.90;80.07
39491;BME280;25175;50.140;18.990;2022-08-06T12:18:39;99139.63;;;16.88;79.79
39491;BME280;25175;50.140;18.990;2022-08-06T12:21:43;99143.56;;;16.86;80.04
39491;BME280;25175;50.140;18.990;2022-08-06T12:24:48;99150.47;;;16.87;80.04
39491;BME280;25175;50.140;18.990;2022-08-06T12:27:55;99148.41;;;16.88;79.94
39491;BME280;25175;50.140;18.990;2022-08-06T12:31:29;99151.19;;;16.93;80.30
39491;BME280;25175;50.140;18.990;2022-08-06T12:34:32;99149.78;;;16.91;79.83
39491;BME280;25175;50.140;18.990;2022-08-06T12:37:38;99163.03;;;16.91;80.26
39491;BME280;25175;50.140;18.990;2022-08-06T12:40:51;99155.56;;;16.99;80.75
39491;BME280;25175;50.140;18.990;2022-08-06T12:43:53;99162.38;;;17.07;80.50
39491;BME280;25175;50.140;18.990;2022-08-06T12:47:10;99154.66;;;17.05;79.26
39491;BME280;25175;50.140;18.990;2022-08-06T12:50:16;99160.28;;;16.98;79.51
39491;BME280;25175;50.140;18.990;2022-08-06T12:53:20;99153.16;;;16.98;79.52
39491;BME280;25175;50.140;18.990;2022-08-06T12:56:23;99154.41;;;16.95;79.67
39491;BME280;25175;50.140;18.990;2022-08-06T12:59:26;99163.16;;;16.96;79.80
39491;BME280;25175;50.140;18.990;2022-08-06T13:02:28;99161.69;;;17.00;79.69
39491;BME280;25175;50.140;18.990;2022-08-06T13:05:32;99162.38;;;17.07;79.92
39491;BME280;25175;50.140;18.990;2022-08-06T13:08:37;99160.44;;;17.14;79.70
39491;BME280;25175;50.140;18.990;2022-08-06T13:11:39;99162.66;;;17.17;79.02
39491;BME280;25175;50.140;18.990;2022-08-06T13:14:48;99153.53;;;17.13;78.60
39491;BME280;25175;50.140;18.990;2022-08-06T13:18:01;99157.91;;;17.08;78.35
39491;BME280;25175;50.140;18.990;2022-08-06T13:21:15;99167.34;;;17.03;78.91
39491;BME280;25175;50.140;18.990;2022-08-06T13:24:26;99168.38;;;17.02;78.67
39491;BME280;25175;50.140;18.990;2022-08-06T13:27:32;99167.56;;;17.02;78.90
39491;BME280;25175;50.140;18.990;2022-08-06T13:30:34;99167.13;;;17.05;79.44
39491;BME280;25175;50.140;18.990;2022-08-06T13:33:36;99166.88;;;17.06;79.18
39491;BME280;25175;50.140;18.990;2022-08-06T13:36:41;99168.38;;;17.02;78.78
39491;BME280;25175;50.140;18.990;2022-08-06T13:39:52;99172.50;;;16.98;78.78
39491;BME280;25175;50.140;18.990;2022-08-06T13:42:56;99168.25;;;16.98;79.01
39491;BME280;25175;50.140;18.990;2022-08-06T13:46:04;99167.19;;;16.98;79.12
39491;BME280;25175;50.140;18.990;2022-08-06T13:49:06;99170.28;;;16.95;78.81
39491;BME280;25175;50.140;18.990;2022-08-06T13:52:08;99175.56;;;16.95;78.86
39491;BME280;25175;50.140;18.990;2022-08-06T13:55:12;99174.31;;;16.98;79.22
39491;BME280;25175;50.140;18.990;2022-08-06T13:58:15;99168.44;;;16.96;78.84
39491;BME280;25175;50.140;18.990;2022-08-06T14:01:17;99172.72;;;16.97;79.06
39491;BME280;25175;50.140;18.990;2022-08-06T14:04:20;99169.84;;;16.98;78.91
39491;BME280;25175;50.140;18.990;2022-08-06T14:07:23;99165.34;;;16.99;78.88
39491;BME280;25175;50.140;18.990;2022-08-06T14:10:27;99167.41;;;16.97;78.63
39491;BME280;25175;50.140;18.990;2022-08-06T14:13:29;99178.47;;;16.94;79.01
39491;BME280;25175;50.140;18.990;2022-08-06T14:16:33;99168.25;;;16.98;78.98
39491;BME280;25175;50.140;18.990;2022-08-06T14:19:35;99172.72;;;16.97;78.87
39491;BME280;25175;50.140;18.990;2022-08-06T14:22:37;99168.38;;;17.02;79.16
39491;BME280;25175;50.140;18.990;2022-08-06T14:25:41;99170.00;;;17.15;79.23
39491;BME280;25175;50.140;18.990;2022-08-06T14:28:43;99164.59;;;17.21;78.79
39491;BME280;25175;50.140;18.990;2022-08-06T14:31:45;99162.09;;;17.26;78.46
39491;BME280;25175;50.140;18.990;2022-08-06T14:34:47;99169.56;;;17.29;78.38
39491;BME280;25175;50.140;18.990;2022-08-06T14:37:52;99168.91;;;17.34;78.50
39491;BME280;25175;50.140;18.990;2022-08-06T14:40:56;99173.63;;;17.43;78.55
39491;BME280;25175;50.140;18.990;2022-08-06T14:44:15;99165.84;;;17.48;78.23
39491;BME280;25175;50.140;18.990;2022-08-06T14:47:35;99161.09;;;17.50;78.31
39491;BME280;25175;50.140;18.990;2022-08-06T14:50:37;99163.31;;;17.53;78.16
39491;BME280;25175;50.140;18.990;2022-08-06T14:53:40;99160.19;;;17.56;78.01
39491;BME280;25175;50.140;18.990;2022-08-06T14:56:45;99155.34;;;17.65;78.35
39491;BME280;25175;50.140;18.990;2022-08-06T14:59:49;99156.06;;;17.72;77.98
39491;BME280;25175;50.140;18.990;2022-08-06T15:02:51;99153.84;;;17.80;77.89
39491;BME280;25175;50.140;18.990;2022-08-06T15:05:54;99162.50;;;17.87;78.00
39491;BME280;25175;50.140;18.990;2022-08-06T15:08:56;99161.56;;;17.93;77.68
39491;BME280;25175;50.140;18.990;2022-08-06T15:12:00;99160.78;;;17.93;76.99
39491;BME280;25175;50.140;18.990;2022-08-06T15:15:04;99155.56;;;17.98;76.90
39491;BME280;25175;50.140;18.990;2022-08-06T15:18:07;99161.31;;;18.06;76.94
39491;BME280;25175;50.140;18.990;2022-08-06T15:21:09;99159.91;;;18.15;76.68
39491;BME280;25175;50.140;18.990;2022-08-06T15:24:11;99152.63;;;18.22;76.65
39491;BME280;25175;50.140;18.990;2022-08-06T15:27:15;99158.88;;;18.28;76.14
39491;BME280;25175;50.140;18.990;2022-08-06T15:30:20;99149.16;;;18.33;75.90
39491;BME280;25175;50.140;18.990;2022-08-06T15:33:25;99149.38;;;18.43;76.18
39491;BME280;25175;50.140;18.990;2022-08-06T15:36:28;99147.53;;;18.44;75.76
39491;BME280;25175;50.140;18.990;2022-08-06T15:39:31;99144.16;;;18.48;75.02
39491;BME280;25175;50.140;18.990;2022-08-06T15:42:35;99144.03;;;18.55;74.48
39491;BME280;25175;50.140;18.990;2022-08-06T15:45:37;99141.72;;;18.58;74.50
39491;BME280;25175;50.140;18.990;2022-08-06T15:48:39;99144.13;;;18.60;74.38
39491;BME280;25175;50.140;18.990;2022-08-06T15:51:41;99147.84;;;18.59;73.97
39491;BME280;25175;50.140;18.990;2022-08-06T15:54:44;99150.94;;;18.56;74.31
39491;BME280;25175;50.140;18.990;2022-08-06T15:57:48;99144.81;;;18.55;74.20
39491;BME280;25175;50.140;18.990;2022-08-06T16:00:50;99152.13;;;18.48;73.29
39491;BME280;25175;50.140;18.990;2022-08-06T16:03:53;99142.47;;;18.42;73.26
39491;BME280;25175;50.140;18.990;2022-08-06T16:06:55;99146.72;;;18.43;73.92
39491;BME280;25175;50.140;18.990;2022-08-06T16:09:57;99145.22;;;18.47;74.01
39491;BME280;25175;50.140;18.990;2022-08-06T16:13:00;99145.31;;;18.52;74.04
39491;BME280;25175;50.140;18.990;2022-08-06T16:16:03;99156.50;;;18.54;73.80
39491;BME280;25175;50.140;18.990;2022-08-06T16:19:05;99155.69;;;18.54;73.34